createdAt,value
2023-05-14T00:01:23.779Z,14.44
2023-05-14T00:03:50.437Z,14.40
2023-05-14T00:06:16.901Z,14.39
2023-05-14T00:08:43.302Z,14.38
2023-05-14T00:11:09.698Z,14.35
2023-05-14T00:13:36.521Z,14.27
2023-05-14T00:16:02.996Z,14.27
2023-05-14T00:18:29.548Z,14.20
2023-05-14T00:20:56.136Z,14.16
2023-05-14T00:23:22.778Z,14.16
2023-05-14T00:25:49.921Z,14.23
2023-05-14T00:28:16.528Z,14.26
2023-05-14T00:30:42.933Z,14.22
2023-05-14T00:33:09.455Z,14.23
2023-05-14T00:35:35.996Z,14.20
2023-05-14T00:38:03.788Z,14.20
2023-05-14T00:40:30.639Z,14.20
2023-05-14T00:42:57.135Z,14.13
2023-05-14T00:45:23.605Z,14.07
2023-05-14T00:47:50.250Z,14.03
2023-05-14T00:50:17.910Z,13.96
2023-05-14T00:52:44.577Z,13.97
2023-05-14T00:55:16.259Z,13.97
2023-05-14T00:57:42.996Z,13.90
2023-05-14T01:00:09.972Z,13.82
2023-05-14T01:02:36.589Z,13.75
2023-05-14T01:05:03.661Z,13.72
2023-05-14T01:07:39.115Z,13.70
2023-05-14T01:10:15.028Z,13.76
2023-05-14T01:13:08.239Z,13.70
2023-05-14T01:15:37.521Z,13.58
2023-05-14T01:18:09.471Z,13.54
2023-05-14T01:20:36.589Z,13.46
2023-05-14T01:23:03.551Z,13.45
2023-05-14T01:25:31.406Z,13.42
2023-05-14T01:28:09.084Z,13.41
2023-05-14T01:30:37.548Z,13.36
2023-05-14T01:33:10.032Z,13.35
2023-05-14T01:35:37.197Z,13.36
2023-05-14T01:38:06.735Z,13.30
2023-05-14T01:40:34.546Z,13.25
2023-05-14T01:43:01.853Z,13.27
2023-05-14T01:45:28.264Z,13.24
2023-05-14T01:47:54.700Z,13.22
2023-05-14T01:50:21.430Z,13.19
2023-05-14T01:52:53.369Z,13.21
2023-05-14T01:55:19.864Z,13.18
2023-05-14T01:57:46.234Z,13.20
2023-05-14T02:00:12.986Z,13.20
2023-05-14T02:02:39.383Z,13.14
2023-05-14T02:05:07.032Z,13.12
2023-05-14T02:07:33.706Z,13.04
2023-05-14T02:10:00.135Z,13.01
2023-05-14T02:12:26.660Z,13.06
2023-05-14T02:14:53.085Z,13.07
2023-05-14T02:17:20.027Z,13.03
2023-05-14T02:19:46.543Z,13.01
2023-05-14T02:22:13.367Z,12.98
2023-05-14T02:24:39.754Z,12.95
2023-05-14T02:27:06.289Z,12.91
2023-05-14T02:29:32.782Z,12.89
2023-05-14T02:31:59.192Z,12.87
2023-05-14T02:34:25.970Z,12.88
2023-05-14T02:36:52.371Z,12.87
2023-05-14T02:39:18.737Z,12.89
2023-05-14T02:41:45.121Z,12.85
2023-05-14T02:44:11.485Z,12.81
2023-05-14T02:46:37.931Z,12.78
2023-05-14T02:49:04.334Z,12.73
2023-05-14T02:51:30.783Z,12.73
2023-05-14T02:53:57.210Z,12.70
2023-05-14T02:56:23.616Z,12.68
2023-05-14T02:58:50.042Z,12.69
2023-05-14T03:01:16.805Z,12.68
2023-05-14T03:03:43.715Z,12.62
2023-05-14T03:06:10.458Z,12.67
2023-05-14T03:08:36.854Z,12.58
2023-05-14T03:11:03.484Z,12.55
2023-05-14T03:13:29.885Z,12.54
2023-05-14T03:15:56.816Z,12.47
2023-05-14T03:18:23.209Z,12.47
2023-05-14T03:20:49.548Z,12.44
2023-05-14T03:23:15.904Z,12.48
2023-05-14T03:25:42.294Z,12.42
2023-05-14T03:28:08.828Z,12.43
2023-05-14T03:30:35.410Z,12.36
2023-05-14T03:33:01.899Z,12.34
2023-05-14T03:35:28.300Z,12.31
2023-05-14T03:37:54.702Z,12.30
2023-05-14T03:40:21.446Z,12.32
2023-05-14T03:42:48.168Z,12.34
2023-05-14T03:45:14.553Z,12.36
2023-05-14T03:47:41.399Z,12.36
2023-05-14T03:50:08.780Z,12.37
2023-05-14T03:52:35.436Z,12.36
2023-05-14T03:55:01.905Z,12.33
2023-05-14T03:57:28.594Z,12.34
2023-05-14T03:59:54.940Z,12.34
2023-05-14T04:02:21.418Z,12.35
2023-05-14T04:04:47.990Z,12.36
2023-05-14T04:07:14.427Z,12.32
2023-05-14T04:09:40.851Z,12.39
2023-05-14T04:12:07.728Z,12.38
2023-05-14T04:14:34.137Z,12.39
2023-05-14T04:17:00.667Z,12.38
2023-05-14T04:19:27.053Z,12.38
2023-05-14T04:21:53.427Z,12.39
2023-05-14T04:24:19.812Z,12.34
2023-05-14T04:26:46.296Z,12.34
2023-05-14T04:29:12.710Z,12.31
2023-05-14T04:31:39.683Z,12.29
2023-05-14T04:34:06.091Z,12.30
2023-05-14T04:36:32.557Z,12.32
2023-05-14T04:38:58.921Z,12.37
2023-05-14T04:41:25.400Z,12.46
2023-05-14T04:43:55.345Z,12.52
2023-05-14T04:46:22.253Z,12.54
2023-05-14T04:48:49.038Z,12.55
2023-05-14T04:51:15.429Z,12.55
2023-05-14T04:53:41.798Z,12.60
2023-05-14T04:56:08.222Z,12.63
2023-05-14T04:58:35.260Z,12.61
2023-05-14T05:01:03.218Z,12.68
2023-05-14T05:03:29.820Z,12.74
2023-05-14T05:05:56.312Z,12.82
2023-05-14T05:08:22.962Z,12.87
2023-05-14T05:10:49.404Z,12.95
2023-05-14T05:13:16.965Z,12.97
2023-05-14T05:15:43.736Z,12.97
2023-05-14T05:18:10.204Z,13.01
2023-05-14T05:20:36.553Z,13.00
2023-05-14T05:23:02.884Z,13.02
2023-05-14T05:25:29.216Z,13.04
2023-05-14T05:27:55.641Z,13.03
2023-05-14T05:30:22.218Z,13.10
2023-05-14T05:32:48.960Z,13.16
2023-05-14T05:35:15.369Z,13.21
2023-05-14T05:37:42.900Z,13.22
2023-05-14T05:40:10.271Z,13.26
2023-05-14T05:42:36.597Z,13.28
2023-05-14T05:45:03.128Z,13.27
2023-05-14T05:47:30.126Z,13.32
2023-05-14T05:49:56.857Z,13.31
2023-05-14T05:52:23.431Z,13.32
2023-05-14T05:54:49.927Z,13.34
2023-05-14T05:57:16.321Z,13.34
2023-05-14T05:59:43.348Z,13.34
2023-05-14T06:02:09.718Z,13.30
2023-05-14T06:04:36.128Z,13.35
2023-05-14T06:07:02.588Z,13.28
2023-05-14T06:09:28.968Z,13.30
2023-05-14T06:11:55.424Z,13.38
2023-05-14T06:14:21.803Z,13.44
2023-05-14T06:16:48.163Z,13.51
2023-05-14T06:19:14.662Z,13.53
2023-05-14T06:21:41.070Z,13.61
2023-05-14T06:24:07.656Z,13.65
2023-05-14T06:26:34.074Z,13.74
2023-05-14T06:29:00.436Z,13.86
2023-05-14T06:31:26.880Z,13.97
2023-05-14T06:33:53.255Z,14.10
2023-05-14T06:36:19.656Z,14.26
2023-05-14T06:38:46.092Z,14.47
2023-05-14T06:41:12.530Z,14.56
2023-05-14T06:43:38.938Z,14.55
2023-05-14T06:46:05.389Z,14.52
2023-05-14T06:48:31.864Z,14.59
2023-05-14T06:50:58.317Z,14.72
2023-05-14T06:53:24.750Z,14.87
2023-05-14T06:55:51.261Z,14.95
2023-05-14T06:58:17.803Z,15.07
2023-05-14T07:00:44.140Z,15.17
2023-05-14T07:03:10.526Z,15.27
2023-05-14T07:05:36.902Z,15.34
2023-05-14T07:08:03.372Z,15.31
2023-05-14T07:10:30.842Z,15.20
2023-05-14T07:12:57.253Z,15.25
2023-05-14T07:15:23.625Z,15.36
2023-05-14T07:17:50.135Z,15.52
2023-05-14T07:20:16.600Z,15.62
2023-05-14T07:22:42.934Z,15.54
2023-05-14T07:25:09.472Z,15.56
2023-05-14T07:27:35.904Z,15.70
2023-05-14T07:30:02.387Z,15.84
2023-05-14T07:32:28.804Z,15.93
2023-05-14T07:34:55.929Z,16.02
2023-05-14T07:37:24.047Z,16.10
2023-05-14T07:39:51.028Z,16.22
2023-05-14T07:42:31.814Z,16.26
2023-05-14T07:45:02.117Z,16.34
2023-05-14T07:47:29.418Z,16.48
2023-05-14T07:49:56.849Z,16.56
2023-05-14T07:52:23.883Z,16.69
2023-05-14T07:54:51.928Z,16.70
2023-05-14T07:57:19.381Z,16.83
2023-05-14T07:59:46.298Z,16.89
2023-05-14T08:02:12.946Z,16.98
2023-05-14T08:04:39.879Z,17.11
2023-05-14T08:07:08.385Z,17.14
2023-05-14T08:09:34.897Z,17.23
2023-05-14T08:12:01.455Z,17.13
2023-05-14T08:14:28.454Z,17.08
2023-05-14T08:16:54.886Z,17.10
2023-05-14T08:19:21.718Z,17.18
2023-05-14T08:21:48.207Z,17.28
2023-05-14T08:24:15.054Z,17.36
2023-05-14T08:26:41.948Z,17.49
2023-05-14T08:29:10.498Z,17.61
2023-05-14T08:31:37.334Z,17.61
2023-05-14T08:34:03.735Z,17.67
2023-05-14T08:36:30.214Z,17.72
2023-05-14T08:38:56.561Z,17.86
2023-05-14T08:41:23.321Z,17.96
2023-05-14T08:43:58.258Z,17.98
2023-05-14T08:46:25.205Z,17.97
2023-05-14T08:48:59.606Z,18.08
2023-05-14T08:51:27.633Z,18.15
2023-05-14T08:53:54.228Z,18.02
2023-05-14T08:56:21.564Z,18.06
2023-05-14T08:58:48.004Z,18.19
2023-05-14T09:01:14.531Z,18.22
2023-05-14T09:03:41.649Z,18.25
2023-05-14T09:06:08.825Z,18.34
2023-05-14T09:08:36.293Z,18.38
2023-05-14T09:11:02.758Z,18.36
2023-05-14T09:13:29.186Z,18.47
2023-05-14T09:15:56.508Z,18.61
2023-05-14T09:18:23.041Z,18.69
2023-05-14T09:20:49.465Z,18.78
2023-05-14T09:23:15.791Z,18.87
2023-05-14T09:25:42.400Z,18.98
2023-05-14T09:28:09.561Z,19.07
2023-05-14T09:30:36.988Z,19.10
2023-05-14T09:33:04.242Z,19.16
2023-05-14T09:35:32.288Z,19.17
2023-05-14T09:37:58.687Z,19.18
2023-05-14T09:40:25.398Z,19.36
2023-05-14T09:42:52.066Z,19.47
2023-05-14T09:45:18.535Z,19.70
2023-05-14T09:47:45.408Z,19.83
2023-05-14T09:50:12.350Z,19.85
2023-05-14T09:52:39.142Z,19.83
2023-05-14T09:55:06.304Z,19.82
2023-05-14T09:57:33.457Z,19.88
2023-05-14T09:59:59.816Z,19.97
2023-05-14T10:02:31.238Z,20.11
2023-05-14T10:05:02.464Z,20.20
2023-05-14T10:07:42.535Z,20.30
2023-05-14T10:10:13.633Z,20.25
2023-05-14T10:12:40.721Z,20.27
2023-05-14T10:15:16.729Z,20.32
2023-05-14T10:17:48.550Z,20.39
2023-05-14T10:20:18.534Z,20.50
2023-05-14T10:22:45.401Z,20.50
2023-05-14T10:25:12.177Z,20.66
2023-05-14T10:27:39.362Z,20.71
2023-05-14T10:30:12.299Z,20.83
2023-05-14T10:32:41.625Z,20.90
2023-05-14T10:35:20.368Z,21.11
2023-05-14T10:37:47.005Z,21.06
2023-05-14T10:40:14.077Z,21.20
2023-05-14T10:42:43.260Z,21.39
2023-05-14T10:45:15.137Z,21.36
2023-05-14T10:47:43.593Z,21.48
2023-05-14T10:50:12.733Z,21.52
2023-05-14T10:52:42.517Z,21.72
2023-05-14T10:55:10.735Z,21.65
2023-05-14T10:57:39.410Z,21.66
2023-05-14T11:00:07.758Z,21.62
2023-05-14T11:02:44.882Z,21.78
2023-05-14T11:05:15.515Z,22.02
2023-05-14T11:07:47.146Z,21.95
2023-05-14T11:10:15.656Z,22.17
2023-05-14T11:12:44.890Z,22.31
2023-05-14T11:15:14.099Z,22.44
2023-05-14T11:17:42.043Z,22.60
2023-05-14T11:20:09.385Z,22.78
2023-05-14T11:22:36.792Z,22.79
2023-05-14T11:25:03.698Z,22.99
2023-05-14T11:27:33.265Z,23.13
2023-05-14T11:30:00.941Z,23.35
2023-05-14T11:32:27.868Z,23.58
2023-05-14T11:34:54.302Z,23.69
2023-05-14T11:37:21.019Z,23.75
2023-05-14T11:39:49.310Z,23.78
2023-05-14T11:42:18.499Z,23.79
2023-05-14T11:44:47.520Z,23.96
2023-05-14T11:47:13.920Z,24.13
2023-05-14T11:49:40.365Z,24.05
2023-05-14T11:52:10.940Z,24.02
2023-05-14T11:54:37.825Z,23.87
2023-05-14T11:57:09.800Z,23.82
2023-05-14T11:59:36.857Z,23.98
2023-05-14T12:02:06.869Z,24.31
2023-05-14T12:04:33.511Z,24.54
2023-05-14T12:07:00.418Z,24.58
2023-05-14T12:09:27.002Z,24.70
2023-05-14T12:11:53.449Z,25.08
2023-05-14T12:14:24.298Z,25.49
2023-05-14T12:16:51.494Z,25.93
2023-05-14T12:19:19.375Z,25.98
2023-05-14T12:21:48.047Z,25.70
2023-05-14T12:24:17.668Z,25.88
2023-05-14T12:26:45.737Z,25.86
2023-05-14T12:29:13.816Z,25.99
2023-05-14T12:31:48.618Z,25.80
2023-05-14T12:34:15.928Z,26.02
2023-05-14T12:36:43.377Z,26.26
2023-05-14T12:39:10.821Z,26.25
2023-05-14T12:41:37.182Z,26.02
2023-05-14T12:44:04.982Z,26.18
2023-05-14T12:46:32.909Z,26.48
2023-05-14T12:48:59.397Z,26.91
2023-05-14T12:51:25.898Z,27.12
2023-05-14T12:53:54.091Z,27.05
2023-05-14T12:56:21.258Z,27.05
2023-05-14T12:58:47.756Z,27.12
2023-05-14T13:01:14.173Z,27.07
2023-05-14T13:03:41.074Z,26.77
2023-05-14T13:06:07.914Z,26.65
2023-05-14T13:08:35.354Z,26.57
2023-05-14T13:11:01.725Z,26.63
2023-05-14T13:13:28.201Z,26.86
2023-05-14T13:15:55.476Z,27.01
2023-05-14T13:18:21.895Z,27.22
2023-05-14T13:20:48.416Z,27.18
2023-05-14T13:23:15.046Z,27.05
2023-05-14T13:25:41.462Z,27.00
2023-05-14T13:28:08.558Z,26.98
2023-05-14T13:30:35.008Z,26.81
2023-05-14T13:33:01.675Z,26.82
2023-05-14T13:35:28.165Z,26.76
2023-05-14T13:37:54.553Z,26.54
2023-05-14T13:40:21.176Z,26.51
2023-05-14T13:42:47.583Z,26.42
2023-05-14T13:45:14.014Z,26.39
2023-05-14T13:47:40.553Z,26.55
2023-05-14T13:50:07.461Z,26.55
2023-05-14T13:52:33.899Z,26.72
2023-05-14T13:55:00.285Z,26.65
2023-05-14T13:57:26.931Z,26.77
2023-05-14T13:59:53.364Z,26.54
2023-05-14T14:02:19.810Z,26.56
2023-05-14T14:04:46.232Z,26.64
2023-05-14T14:07:12.584Z,26.67
2023-05-14T14:09:38.981Z,26.58
2023-05-14T14:12:06.025Z,26.47
2023-05-14T14:14:32.549Z,26.31
2023-05-14T14:16:58.884Z,26.42
2023-05-14T14:19:25.443Z,26.14
2023-05-14T14:21:51.889Z,25.99
2023-05-14T14:24:18.319Z,25.70
2023-05-14T14:26:44.661Z,25.79
2023-05-14T14:29:11.086Z,26.05
2023-05-14T14:31:37.506Z,26.08
2023-05-14T14:34:04.041Z,25.80
2023-05-14T14:36:31.592Z,25.71
2023-05-14T14:38:57.966Z,25.65
2023-05-14T14:41:24.500Z,25.74
2023-05-14T14:43:50.938Z,25.92
2023-05-14T14:46:17.310Z,25.90
2023-05-14T14:48:43.960Z,25.98
2023-05-14T14:51:10.431Z,25.98
2023-05-14T14:53:37.230Z,26.17
2023-05-14T14:56:03.886Z,26.12
2023-05-14T14:58:31.012Z,25.96
2023-05-14T15:00:58.231Z,25.88
2023-05-14T15:03:25.570Z,25.94
2023-05-14T15:05:53.592Z,25.68
2023-05-14T15:08:20.854Z,25.68
2023-05-14T15:10:47.295Z,25.57
2023-05-14T15:13:13.708Z,25.39
2023-05-14T15:15:40.165Z,25.32
2023-05-14T15:18:06.698Z,25.12
2023-05-14T15:20:33.208Z,24.94
2023-05-14T15:22:59.629Z,24.97
2023-05-14T15:25:26.717Z,24.92
2023-05-14T15:27:53.458Z,25.02
2023-05-14T15:30:20.213Z,24.78
2023-05-14T15:32:46.824Z,24.81
2023-05-14T15:35:13.378Z,24.65
2023-05-14T15:37:42.968Z,24.48
2023-05-14T15:40:10.453Z,24.05
2023-05-14T15:42:38.433Z,24.14
2023-05-14T15:45:05.597Z,24.24
2023-05-14T15:47:32.328Z,24.14
2023-05-14T15:49:59.237Z,24.06
2023-05-14T15:52:25.873Z,23.92
2023-05-14T15:54:52.417Z,23.83
2023-05-14T15:57:20.006Z,23.59
2023-05-14T15:59:47.294Z,23.48
2023-05-14T16:02:15.081Z,23.35
2023-05-14T16:04:41.542Z,23.22
2023-05-14T16:07:12.131Z,23.14
2023-05-14T16:09:39.159Z,23.01
2023-05-14T16:12:06.676Z,23.08
2023-05-14T16:14:34.611Z,23.11
2023-05-14T16:17:01.990Z,23.07
2023-05-14T16:19:28.612Z,22.90
2023-05-14T16:21:55.068Z,22.86
2023-05-14T16:24:23.620Z,22.76
2023-05-14T16:26:50.033Z,22.60
2023-05-14T16:29:16.422Z,22.55
2023-05-14T16:31:43.300Z,22.37
2023-05-14T16:34:09.762Z,22.29
2023-05-14T16:36:36.393Z,22.27
2023-05-14T16:41:32.330Z,22.25
2023-05-14T16:43:58.760Z,22.23
2023-05-14T16:46:25.401Z,22.16
2023-05-14T16:48:51.778Z,22.06
2023-05-14T16:51:18.175Z,21.98
2023-05-14T16:53:44.624Z,21.92
2023-05-14T16:56:11.062Z,21.75
2023-05-14T16:58:37.529Z,21.69
2023-05-14T17:01:03.998Z,21.59
2023-05-14T17:03:30.594Z,21.43
2023-05-14T17:05:56.957Z,21.41
2023-05-14T17:08:23.309Z,21.31
2023-05-14T17:10:49.719Z,21.26
2023-05-14T17:13:16.228Z,21.19
2023-05-14T17:15:42.653Z,21.13
2023-05-14T17:18:09.176Z,21.06
2023-05-14T17:20:35.601Z,20.95
2023-05-14T17:23:02.018Z,20.89
2023-05-14T17:25:28.414Z,20.76
2023-05-14T17:27:54.873Z,20.57
2023-05-14T17:30:21.353Z,20.50
2023-05-14T17:32:50.288Z,20.52
2023-05-14T17:35:17.433Z,20.41
2023-05-14T17:37:46.758Z,20.22
2023-05-14T17:40:13.347Z,20.20
2023-05-14T17:42:39.764Z,19.99
2023-05-14T17:45:06.892Z,19.85
2023-05-14T17:47:33.286Z,19.76
2023-05-14T17:49:59.806Z,19.60
2023-05-14T17:52:26.238Z,19.49
2023-05-14T17:54:52.586Z,19.39
2023-05-14T17:57:18.998Z,19.34
2023-05-14T17:59:45.324Z,19.17
2023-05-14T18:02:11.705Z,19.15
2023-05-14T18:04:38.096Z,19.03
2023-05-14T18:07:04.727Z,18.99
2023-05-14T18:09:31.083Z,18.94
2023-05-14T18:11:57.597Z,18.84
2023-05-14T18:14:24.061Z,18.76
2023-05-14T18:16:54.453Z,18.71
2023-05-14T18:19:20.875Z,18.63
2023-05-14T18:21:48.094Z,18.61
2023-05-14T18:24:14.591Z,18.53
2023-05-14T18:26:41.045Z,18.40
2023-05-14T18:29:07.394Z,18.34
2023-05-14T18:31:33.917Z,18.22
2023-05-14T18:34:00.398Z,18.21
2023-05-14T18:36:26.856Z,18.07
2023-05-14T18:38:53.333Z,18.03
2023-05-14T18:41:19.775Z,17.99
2023-05-14T18:43:46.210Z,17.98
2023-05-14T18:46:12.700Z,17.85
2023-05-14T18:48:39.261Z,17.75
2023-05-14T18:51:05.668Z,17.70
2023-05-14T18:53:32.064Z,17.67
2023-05-14T18:56:04.342Z,17.65
2023-05-14T18:58:30.766Z,17.55
2023-05-14T19:00:58.929Z,17.50
2023-05-14T19:03:25.937Z,17.43
2023-05-14T19:05:53.662Z,17.36
2023-05-14T19:08:20.131Z,17.34
2023-05-14T19:10:46.684Z,17.23
2023-05-14T19:13:13.149Z,17.22
2023-05-14T19:15:39.627Z,17.14
2023-05-14T19:18:06.282Z,17.16
2023-05-14T19:20:32.721Z,17.15
2023-05-14T19:22:59.064Z,17.03
2023-05-14T19:25:25.678Z,16.85
2023-05-14T19:27:53.546Z,16.76
2023-05-14T19:30:21.531Z,16.78
2023-05-14T19:32:47.964Z,16.66
2023-05-14T19:35:14.455Z,16.64
2023-05-14T19:37:40.984Z,16.54
2023-05-14T19:40:07.942Z,16.45
2023-05-14T19:42:34.443Z,16.42
2023-05-14T19:45:00.912Z,16.42
2023-05-14T19:47:28.474Z,16.28
2023-05-14T19:49:55.014Z,16.21
2023-05-14T19:52:21.424Z,16.17
2023-05-14T19:54:47.827Z,16.07
2023-05-14T19:57:14.172Z,16.04
2023-05-14T19:59:41.377Z,16.03
2023-05-14T20:02:07.890Z,16.04
2023-05-14T20:04:34.812Z,15.99
2023-05-14T20:07:01.504Z,15.90
2023-05-14T20:09:27.850Z,15.78
2023-05-14T20:11:54.256Z,15.73
2023-05-14T20:14:20.701Z,15.71
2023-05-14T20:16:48.742Z,15.71
2023-05-14T20:19:16.216Z,15.69
2023-05-14T20:21:42.860Z,15.57
2023-05-14T20:24:09.190Z,15.51
2023-05-14T20:26:35.764Z,15.50
2023-05-14T20:29:02.109Z,15.49
2023-05-14T20:31:28.700Z,15.52
2023-05-14T20:33:55.374Z,15.49
2023-05-14T20:36:22.236Z,15.51
2023-05-14T20:38:48.715Z,15.49
2023-05-14T20:41:15.357Z,15.43
2023-05-14T20:43:41.690Z,15.46
2023-05-14T20:46:08.990Z,15.40
2023-05-14T20:48:35.538Z,15.36
2023-05-14T20:51:04.690Z,15.31
2023-05-14T20:53:31.092Z,15.24
2023-05-14T20:55:58.869Z,15.11
2023-05-14T20:58:25.421Z,15.07
2023-05-14T21:00:51.835Z,15.10
2023-05-14T21:03:18.444Z,15.11
2023-05-14T21:05:44.870Z,15.08
2023-05-14T21:08:11.281Z,15.07
2023-05-14T21:10:37.732Z,15.08
2023-05-14T21:13:07.352Z,15.05
2023-05-14T21:15:33.864Z,14.97
2023-05-14T21:18:01.823Z,14.99
2023-05-14T21:20:28.229Z,15.02
2023-05-14T21:22:54.604Z,14.99
2023-05-14T21:25:21.025Z,14.93
2023-05-14T21:27:47.405Z,14.96
2023-05-14T21:30:14.087Z,14.86
2023-05-14T21:32:40.485Z,14.80
2023-05-14T21:35:07.413Z,14.78
2023-05-14T21:37:33.774Z,14.74
2023-05-14T21:40:00.244Z,14.63
2023-05-14T21:42:26.626Z,14.56
2023-05-14T21:44:53.024Z,14.57
2023-05-14T21:47:20.983Z,14.58
2023-05-14T21:49:47.337Z,14.61
2023-05-14T21:52:14.069Z,14.51
2023-05-14T21:54:40.432Z,14.49
2023-05-14T21:57:06.957Z,14.47
2023-05-14T21:59:33.601Z,14.43
2023-05-14T22:04:29.148Z,14.44
2023-05-14T22:06:55.813Z,14.26
2023-05-14T22:09:22.198Z,14.22
2023-05-14T22:11:48.594Z,14.21
2023-05-14T22:14:14.975Z,14.18
2023-05-14T22:16:41.405Z,14.12
2023-05-14T22:19:08.065Z,14.17
2023-05-14T22:21:34.508Z,14.17
2023-05-14T22:24:00.938Z,14.09
2023-05-14T22:26:27.338Z,13.95
2023-05-14T22:28:53.736Z,13.93
2023-05-14T22:31:20.161Z,13.88
2023-05-14T22:33:46.633Z,13.90
2023-05-14T22:36:13.091Z,13.90
2023-05-14T22:38:41.118Z,13.88
2023-05-14T22:41:07.505Z,13.86
2023-05-14T22:43:33.874Z,13.83
2023-05-14T22:46:00.450Z,13.82
2023-05-14T22:48:26.917Z,13.83
2023-05-14T22:50:53.328Z,13.82
2023-05-14T22:53:19.707Z,13.82
2023-05-14T22:55:46.133Z,13.91
2023-05-14T22:58:12.512Z,13.90
2023-05-14T23:00:38.833Z,13.88
2023-05-14T23:03:05.337Z,13.91
2023-05-14T23:05:31.676Z,13.91
2023-05-14T23:07:58.046Z,13.89
2023-05-14T23:10:24.543Z,13.87
2023-05-14T23:12:50.903Z,13.80
2023-05-14T23:15:17.225Z,13.76
2023-05-14T23:17:43.631Z,13.74
2023-05-14T23:20:13.427Z,13.63
2023-05-14T23:22:40.678Z,13.63
2023-05-14T23:25:07.695Z,13.62
2023-05-14T23:27:35.335Z,13.65
2023-05-14T23:30:03.120Z,13.66
2023-05-14T23:32:29.727Z,13.64
2023-05-14T23:34:56.145Z,13.56
2023-05-14T23:37:23.198Z,13.63
2023-05-14T23:39:49.832Z,13.51
2023-05-14T23:42:16.192Z,13.46
2023-05-14T23:44:42.609Z,13.46
2023-05-14T23:47:09.288Z,13.48
2023-05-14T23:49:35.863Z,13.47
2023-05-14T23:52:02.357Z,13.39
2023-05-14T23:54:28.773Z,13.26
2023-05-14T23:56:55.326Z,13.22
2023-05-14T23:59:22.358Z,13.22
